Time;durP1;ratioP1;P1;durP2;ratioP2;P2;SDS_P1;SDS_P2;PMS_P1;PMS_P2;Temp;Humidity;BMP_temperature;BMP_pressure;BME280_temperature;BME280_humidity;BME280_pressure;Samples;Min_cycle;Max_cycle;Signal;HPM_P1;HPM_P2
2023/02/02 00:01:25;;;;;;;10.23;4.53;;;154.50;2252.80;;;;;;5051800;28;20033;-76
2023/02/02 00:03:52;;;;;;;10.02;5.03;;;154.50;2252.80;;;;;;5049774;28;20017;-76
2023/02/02 00:06:19;;;;;;;9.77;4.38;;;154.50;2252.80;;;;;;5039797;28;20060;-76
2023/02/02 00:08:44;;;;;;;12.40;6.25;;;154.50;2252.80;;;;;;5049695;28;20033;-76
2023/02/02 00:11:10;;;;;;;;;;;179.20;2252.80;;;;;;5051539;28;20120;-76
2023/02/02 00:13:36;;;;;;;16.80;7.05;;;179.20;2252.80;;;;;;5052202;28;19904;-78
2023/02/02 00:16:20;;;;;;;;;;;179.20;2252.80;;;;;;5048856;28;20036;-75
2023/02/02 00:18:48;;;;;;;15.50;6.68;;;179.20;2252.80;;;;;;5048303;28;19908;-75
2023/02/02 00:21:13;;;;;;;16.63;7.63;;;154.50;2252.80;;;;;;5064551;28;20032;-76
2023/02/02 00:23:39;;;;;;;;;;;179.20;2252.80;;;;;;5064922;28;20025;-75
2023/02/02 00:26:05;;;;;;;17.92;9.30;;;179.30;2252.80;;;;;;5068896;28;19911;-76
2023/02/02 00:28:30;;;;;;;;;;;179.20;2252.80;;;;;;5046958;28;20060;-76
2023/02/02 00:30:56;;;;;;;19.20;8.07;;;154.50;2252.80;;;;;;5052449;28;19951;-76
2023/02/02 00:33:21;;;;;;;;;;;179.20;2252.80;;;;;;5043970;28;20039;-76
2023/02/02 00:35:47;;;;;;;15.52;8.45;;;179.20;2252.80;;;;;;5048356;28;19904;-76
2023/02/02 00:38:12;;;;;;;;;;;154.50;2252.80;;;;;;5050464;28;20037;-76
2023/02/02 00:40:38;;;;;;;17.98;8.20;;;154.30;2252.80;;;;;;5047264;28;19905;-77
2023/02/02 00:43:04;;;;;;;;;;;154.30;2252.80;;;;;;5051406;28;20025;-76
2023/02/02 00:45:30;;;;;;;12.32;6.88;;;154.30;2252.80;;;;;;5066363;28;19911;-76
2023/02/02 00:47:55;;;;;;;;;;;154.40;2252.80;;;;;;5064283;28;20405;-75
2023/02/02 00:50:21;;;;;;;14.57;7.65;;;154.40;2252.80;;;;;;5045887;28;20382;-76
2023/02/02 00:52:47;;;;;;;;;;;154.50;2252.80;;;;;;5061202;28;20045;-76
2023/02/02 00:55:14;;;;;;;13.32;7.20;;;154.50;2252.80;;;;;;5059018;28;20290;-76
2023/02/02 00:57:40;;;;;;;13.40;6.90;;;154.50;2252.80;;;;;;5036515;28;20041;-77
2023/02/02 01:00:06;;;;;;;;;;;154.50;2252.80;;;;;;5039961;28;20517;-76
2023/02/02 01:02:34;;;;;;;10.60;5.25;;;179.30;2252.80;;;;;;5046262;28;19940;-75
2023/02/02 01:05:00;;;;;;;16.80;8.48;;;179.30;2252.80;;;;;;5063288;28;20074;-76
2023/02/02 01:07:25;;;;;;;;;;;179.20;2252.80;;;;;;5059632;28;20037;-75
2023/02/02 01:09:51;;;;;;;18.30;9.43;;;179.20;2252.80;;;;;;5046610;28;20346;-75
2023/02/02 01:12:16;;;;;;;;;;;179.30;2252.80;;;;;;5065432;28;20051;-75
2023/02/02 01:14:42;;;;;;;12.32;6.22;;;179.30;2252.80;;;;;;5045286;28;19905;-75
2023/02/02 01:17:07;;;;;;;;;;;179.20;2252.80;;;;;;5047398;28;20089;-75
2023/02/02 01:19:33;;;;;;;13.93;7.30;;;179.20;2252.80;;;;;;5064186;28;19905;-76
2023/02/02 01:21:59;;;;;;;;;;;179.20;2252.80;;;;;;5045516;28;20035;-76
2023/02/02 01:24:24;;;;;;;19.90;8.73;;;179.20;2252.80;;;;;;5047236;28;20372;-76
2023/02/02 01:26:50;;;;;;;;;;;154.50;2252.80;;;;;;5046036;28;20066;-76
2023/02/02 01:29:15;;;;;;;16.27;8.10;;;154.40;2252.80;;;;;;5045752;28;19911;-76
2023/02/02 01:31:41;;;;;;;;;;;154.40;2252.80;;;;;;5047273;28;20032;-76
2023/02/02 01:34:07;;;;;;;15.57;8.65;;;154.30;2252.80;;;;;;5044963;28;19911;-75
2023/02/02 01:36:33;;;;;;;17.55;8.20;;;154.30;2252.80;;;;;;5045813;28;20024;-76
2023/02/02 01:38:59;;;;;;;;;;;154.30;2252.80;;;;;;5064877;28;20451;-77
2023/02/02 01:41:26;;;;;;;17.70;9.23;;;154.20;2252.80;;;;;;5044779;28;20392;-77
2023/02/02 01:44:01;;;;;;;17.85;8.80;;;154.30;2252.80;;;;;;5064153;28;20048;-75
2023/02/02 01:46:26;;;;;;;16.77;9.13;;;154.30;2252.80;;;;;;5046452;28;20047;-76
2023/02/02 01:48:55;;;;;;;;;;;154.20;2252.80;;;;;;5063683;28;20470;-76
2023/02/02 01:51:28;;;;;;;20.10;11.45;;;154.30;2252.80;;;;;;5062607;28;19908;-76
2023/02/02 01:53:56;;;;;;;22.40;10.45;;;154.20;2252.80;;;;;;5046594;28;20053;-76
2023/02/02 01:56:34;;;;;;;16.65;8.65;;;154.30;2252.80;;;;;;5062589;28;20429;-76
2023/02/02 01:59:00;;;;;;;17.60;8.95;;;154.30;2252.80;;;;;;5061324;28;20025;-76
2023/02/02 02:01:26;;;;;;;17.83;9.02;;;154.30;2252.80;;;;;;5044406;28;20047;-76
2023/02/02 02:03:52;;;;;;;;;;;154.40;2252.80;;;;;;5046431;28;20024;-76
2023/02/02 02:06:19;;;;;;;20.15;9.48;;;154.30;2252.80;;;;;;5045405;28;19916;-77
2023/02/02 02:09:01;;;;;;;17.55;7.88;;;154.50;2252.80;;;;;;5043830;28;20128;-76
2023/02/02 02:11:27;;;;;;;16.38;8.45;;;179.20;2252.80;;;;;;5044255;28;20064;-76
2023/02/02 02:17:27;;;;;;;15.98;8.43;;;179.20;2252.80;;;;;;5063642;28;19912;-77
2023/02/02 02:26:41;;;;;;;18.50;8.73;;;154.50;2252.80;;;;;;5063046;28;20048;-75
2023/02/02 02:29:31;;;;;;;;;;;154.50;2252.80;;;;;;5062316;28;20025;-76
2023/02/02 02:32:12;;;;;;;17.05;8.60;;;154.50;2252.80;;;;;;5046842;28;19911;-76
2023/02/02 02:34:46;;;;;;;14.90;7.97;;;154.50;2252.80;;;;;;5044832;28;20021;-76
2023/02/02 02:37:42;;;;;;;18.77;9.07;;;154.50;2252.80;;;;;;5043669;28;20035;-76
2023/02/02 02:40:22;;;;;;;15.63;8.10;;;179.20;2252.80;;;;;;5046105;28;20386;-75
2023/02/02 02:42:55;;;;;;;18.20;9.95;;;154.50;2252.80;;;;;;5045875;28;20033;-75
2023/02/02 02:45:22;;;;;;;18.67;9.48;;;154.40;2252.80;;;;;;5045063;28;20017;-76
2023/02/02 02:47:50;;;;;;;17.35;9.63;;;154.50;2252.80;;;;;;5044423;28;20048;-76
2023/02/02 02:50:16;;;;;;;18.17;9.65;;;154.50;2252.80;;;;;;5063277;28;20028;-76
2023/02/02 02:52:42;;;;;;;19.60;8.90;;;154.40;2252.80;;;;;;5062713;28;20064;-76
2023/02/02 02:55:09;;;;;;;;;;;154.40;2252.80;;;;;;5045950;28;20397;-76
2023/02/02 02:57:50;;;;;;;18.10;9.00;;;154.40;2252.80;;;;;;5062176;28;19908;-76
2023/02/02 03:00:24;;;;;;;17.75;9.20;;;154.30;2252.80;;;;;;5043765;28;20080;-76
2023/02/02 03:03:09;;;;;;;19.77;10.02;;;154.30;2252.80;;;;;;5043589;28;20034;-76
2023/02/02 03:06:00;;;;;;;20.50;10.30;;;154.30;2252.80;;;;;;5061863;28;20025;-76
2023/02/02 03:08:30;;;;;;;18.30;9.50;;;154.30;2252.80;;;;;;5063048;28;20033;-76
2023/02/02 03:10:58;;;;;;;16.48;9.80;;;154.20;2252.80;;;;;;5043161;28;20380;-76
2023/02/02 03:13:25;;;;;;;19.42;10.25;;;154.20;2252.80;;;;;;5044354;28;20017;-76
2023/02/02 03:15:52;;;;;;;18.38;9.45;;;154.20;2252.80;;;;;;5045610;28;20055;-76
2023/02/02 03:18:21;;;;;;;18.77;9.95;;;154.10;2252.80;;;;;;5062014;28;20025;-76
2023/02/02 03:20:47;;;;;;;16.73;9.02;;;154.20;2252.80;;;;;;5047023;28;20032;-76
2023/02/02 03:23:12;;;;;;;;;;;154.30;2252.80;;;;;;5067541;28;20028;-77
2023/02/02 03:25:38;;;;;;;18.25;8.70;;;154.30;2252.80;;;;;;5061447;28;19928;-77
2023/02/02 03:28:04;;;;;;;;;;;154.30;2252.80;;;;;;5048893;28;20076;-76
2023/02/02 03:30:30;;;;;;;17.50;8.43;;;154.40;2252.80;;;;;;5047339;28;19995;-76
2023/02/02 03:32:56;;;;;;;16.67;9.23;;;154.30;2252.80;;;;;;5065283;28;20017;-76
2023/02/02 03:35:22;;;;;;;;;;;154.10;2252.80;;;;;;5048305;28;20042;-76
2023/02/02 03:37:48;;;;;;;29.58;12.75;;;154.00;2252.80;;;;;;5048511;28;20291;-76
2023/02/02 03:40:14;;;;;;;;;;;153.80;2252.80;;;;;;5047407;28;20116;-76
2023/02/02 03:42:39;;;;;;;32.13;14.70;;;153.70;2252.80;;;;;;5048551;28;19956;-76
2023/02/02 03:45:05;;;;;;;;;;;153.70;2252.80;;;;;;5048775;28;20021;-76
2023/02/02 03:47:31;;;;;;;20.95;9.85;;;153.80;2252.80;;;;;;5046237;28;19951;-76
2023/02/02 03:49:57;;;;;;;;;;;153.90;2252.80;;;;;;5060546;28;20029;-77
2023/02/02 03:52:23;;;;;;;19.17;10.35;;;154.10;2252.80;;;;;;5047745;28;19914;-76
2023/02/02 03:54:49;;;;;;;19.92;9.90;;;154.10;2252.80;;;;;;5048343;28;20115;-76
2023/02/02 03:57:15;;;;;;;;;;;154.20;2252.80;;;;;;5049317;28;20123;-76
2023/02/02 03:59:40;;;;;;;17.05;9.43;;;154.30;2252.80;;;;;;5043915;28;19911;-77
2023/02/02 04:02:06;;;;;;;;;;;154.20;2252.80;;;;;;5037664;28;20075;-76
2023/02/02 04:04:33;;;;;;;17.80;8.68;;;154.30;2252.80;;;;;;5055328;28;19927;-77
2023/02/02 04:07:00;;;;;;;17.25;8.93;;;154.20;2252.80;;;;;;5037282;28;20128;-76
2023/02/02 04:09:26;;;;;;;16.90;7.65;;;154.20;2252.80;;;;;;5054888;28;20017;-77
2023/02/02 04:11:51;;;;;;;;;;;154.30;2252.80;;;;;;5037762;28;20355;-76
2023/02/02 04:14:17;;;;;;;16.08;7.47;;;154.40;2252.80;;;;;;5053901;28;19944;-77
2023/02/02 04:16:43;;;;;;;;;;;154.40;2252.80;;;;;;5055543;28;20101;-76
2023/02/02 04:19:11;;;;;;;16.52;7.55;;;154.40;2252.80;;;;;;5053422;28;19909;-76
2023/02/02 04:21:37;;;;;;;16.80;8.25;;;154.40;2252.80;;;;;;5036928;28;20051;-76
2023/02/02 04:24:04;;;;;;;13.55;7.43;;;154.40;2252.80;;;;;;5036788;28;20033;-76
2023/02/02 04:26:30;;;;;;;18.92;7.90;;;154.40;2252.80;;;;;;5036160;28;20040;-76
2023/02/02 04:28:56;;;;;;;;;;;154.50;2252.80;;;;;;5037480;28;20383;-76
2023/02/02 04:31:21;;;;;;;16.55;7.97;;;154.50;2252.80;;;;;;5053238;28;20377;-77
2023/02/02 04:33:47;;;;;;;;;;;179.20;2252.80;;;;;;5037032;28;20112;-77
2023/02/02 04:36:13;;;;;;;16.05;8.88;;;179.20;2252.80;;;;;;5053370;28;19912;-77
2023/02/02 04:38:38;;;;;;;;;;;179.20;2252.80;;;;;;5054957;28;20100;-77
2023/02/02 04:41:09;;;;;;;19.15;10.02;;;179.20;2252.80;;;;;;5053441;28;20024;-79
2023/02/02 04:43:35;;;;;;;18.75;9.73;;;179.20;2252.80;;;;;;5036712;28;20025;-79
2023/02/02 04:46:02;;;;;;;20.05;10.57;;;179.30;2252.80;;;;;;5036515;28;20116;-76
2023/02/02 04:48:27;;;;;;;21.02;10.45;;;179.30;2252.80;;;;;;5036551;28;20055;-77
2023/02/02 04:51:05;;;;;;;;;;;179.30;2252.80;;;;;;5053549;28;20475;-77
2023/02/02 04:53:31;;;;;;;15.45;8.13;;;179.40;2252.80;;;;;;5036170;28;20003;-77
2023/02/02 04:56:03;;;;;;;19.30;10.35;;;179.40;2252.80;;;;;;5054424;28;20442;-76
2023/02/02 04:58:29;;;;;;;18.92;10.73;;;179.40;2252.80;;;;;;5054186;28;20061;-77
2023/02/02 05:00:54;;;;;;;;;;;179.40;2252.80;;;;;;5054642;28;20060;-76
2023/02/02 05:03:20;;;;;;;31.65;15.57;;;179.50;2252.80;;;;;;5052884;28;19904;-77
2023/02/02 05:05:46;;;;;;;;;;;179.50;2252.80;;;;;;5053386;28;20017;-77
2023/02/02 05:08:11;;;;;;;23.08;10.32;;;179.50;2252.80;;;;;;5052473;28;19956;-76
2023/02/02 05:10:40;;;;;;;;;;;179.50;2252.80;;;;;;5054510;28;20024;-76
2023/02/02 05:13:06;;;;;;;15.68;9.63;;;179.40;2252.80;;;;;;5052386;28;19909;-77
2023/02/02 05:15:32;;;;;;;14.65;8.50;;;179.50;2252.80;;;;;;5036249;28;20128;-77
2023/02/02 05:17:58;;;;;;;;;;;179.40;2252.80;;;;;;5052966;28;20556;-76
2023/02/02 05:20:23;;;;;;;15.20;8.57;;;179.40;2252.80;;;;;;5053732;28;19904;-76
2023/02/02 05:22:49;;;;;;;;;;;179.40;2252.80;;;;;;5035931;28;20131;-77
2023/02/02 05:25:15;;;;;;;20.27;9.23;;;179.40;2252.80;;;;;;5052000;28;19909;-76
2023/02/02 05:27:44;;;;;;;;;;;179.40;2252.80;;;;;;5052811;28;20060;-76
2023/02/02 05:30:13;;;;;;;20.48;9.38;;;179.40;2252.80;;;;;;5035766;28;19940;-76
2023/02/02 05:32:39;;;;;;;20.13;10.23;;;179.40;2252.80;;;;;;5035769;28;20066;-74
2023/02/02 05:35:05;;;;;;;;;;;179.30;2252.80;;;;;;5053883;28;20423;-77
2023/02/02 05:37:31;;;;;;;19.73;9.82;;;179.40;2252.80;;;;;;5035565;28;19948;-77
2023/02/02 05:39:57;;;;;;;;;;;179.40;2252.80;;;;;;5036135;28;20111;-78
2023/02/02 05:42:22;;;;;;;19.85;9.90;;;179.50;2252.80;;;;;;5052790;28;20374;-76
2023/02/02 05:44:48;;;;;;;;;;;179.50;2252.80;;;;;;5036021;28;20025;-78
2023/02/02 05:47:14;;;;;;;22.55;10.45;;;179.40;2252.80;;;;;;5052191;28;19912;-77
2023/02/02 05:49:39;;;;;;;;;;;179.40;2252.80;;;;;;5053731;28;20060;-77
2023/02/02 05:52:05;;;;;;;19.67;10.77;;;179.40;2252.80;;;;;;5051778;28;19996;-76
2023/02/02 05:54:30;;;;;;;;;;;179.50;2252.80;;;;;;5052262;28;20033;-77
2023/02/02 05:56:59;;;;;;;23.55;11.38;;;179.40;2252.80;;;;;;5053222;28;19912;-76
2023/02/02 05:59:26;;;;;;;20.00;11.32;;;179.40;2252.80;;;;;;5052014;28;20112;-77
2023/02/02 06:01:53;;;;;;;22.42;13.02;;;179.40;2252.80;;;;;;5061043;28;20013;-76
2023/02/02 06:04:18;;;;;;;25.20;12.80;;;179.30;2252.80;;;;;;5063036;28;20109;-77
2023/02/02 06:06:46;;;;;;;;;;;179.40;2252.80;;;;;;5043627;28;20104;-76
2023/02/02 06:09:12;;;;;;;26.42;11.13;;;179.20;2252.80;;;;;;5059579;28;19905;-76
2023/02/02 06:11:38;;;;;;;;;;;154.40;2252.80;;;;;;5048096;28;20032;-76
2023/02/02 06:14:04;;;;;;;21.70;11.48;;;154.20;2252.80;;;;;;5055499;28;19905;-77
2023/02/02 06:16:30;;;;;;;;;;;154.10;2252.80;;;;;;5045249;28;20021;-77
2023/02/02 06:18:56;;;;;;;24.75;11.85;;;154.10;2252.80;;;;;;5041135;28;19905;-76
2023/02/02 06:21:24;;;;;;;;;;;154.10;2252.80;;;;;;5063309;28;20081;-77
2023/02/02 06:23:51;;;;;;;16.75;8.75;;;154.20;2252.80;;;;;;5042213;28;19931;-77
2023/02/02 06:26:17;;;;;;;15.73;7.55;;;154.10;2252.80;;;;;;5056710;28;20044;-77
2023/02/02 06:28:48;;;;;;;17.23;8.07;;;154.20;2252.80;;;;;;5040549;28;20025;-78
2023/02/02 06:31:17;;;;;;;15.02;7.78;;;154.20;2252.80;;;;;;5047750;28;20037;-77
2023/02/02 06:33:47;;;;;;;14.80;8.35;;;154.20;2252.80;;;;;;5056262;28;20022;-77
2023/02/02 06:36:13;;;;;;;17.45;8.25;;;154.30;2252.80;;;;;;5041424;28;20028;-76
2023/02/02 06:38:40;;;;;;;;;;;154.30;2252.80;;;;;;5054091;28;20078;-76
2023/02/02 06:41:06;;;;;;;16.77;8.40;;;154.30;2252.80;;;;;;5067676;28;19908;-77
2023/02/02 06:43:31;;;;;;;;;;;154.20;2252.80;;;;;;5058544;28;20025;-76
2023/02/02 06:45:57;;;;;;;17.20;8.52;;;154.20;2252.80;;;;;;5050947;28;19991;-77
2023/02/02 06:48:23;;;;;;;;;;;154.20;2252.80;;;;;;5042299;28;20041;-78
2023/02/02 06:50:49;;;;;;;12.80;7.25;;;154.10;2252.80;;;;;;5038958;28;20363;-78
2023/02/02 06:53:20;;;;;;;;;;;154.00;2252.80;;;;;;5045076;28;20158;-76
2023/02/02 06:55:55;;;;;;;10.40;5.63;;;153.80;2252.80;;;;;;5066263;28;19948;-76
2023/02/02 06:58:21;;;;;;;14.60;6.85;;;153.80;2252.80;;;;;;5064111;28;20025;-77
2023/02/02 07:00:47;;;;;;;;;;;153.80;2252.80;;;;;;5076037;28;20094;-76
2023/02/02 07:03:13;;;;;;;21.88;8.57;;;153.80;2252.80;;;;;;5047299;28;19908;-77
2023/02/02 07:05:39;;;;;;;14.38;5.93;;;153.90;2252.80;;;;;;5042984;28;20025;-79
2023/02/02 07:08:04;;;;;;;;;;;154.00;2252.80;;;;;;5043543;28;20068;-76
2023/02/02 07:10:30;;;;;;;20.52;6.78;;;154.00;2252.80;;;;;;5045203;28;19905;-79
2023/02/02 07:12:56;;;;;;;;;;;154.10;2252.80;;;;;;5061759;28;20387;-78
2023/02/02 07:15:21;;;;;;;12.70;5.45;;;154.10;2252.80;;;;;;5062912;28;20252;-77
2023/02/02 07:17:47;;;;;;;;;;;154.20;2252.80;;;;;;5048392;28;20489;-77
2023/02/02 07:20:13;;;;;;;7.65;3.92;;;154.20;2252.80;;;;;;5070422;28;19905;-76
2023/02/02 07:22:38;;;;;;;;;;;154.20;2252.80;;;;;;5042412;28;20023;-76
2023/02/02 07:25:06;;;;;;;8.77;3.85;;;154.20;2252.80;;;;;;5053967;28;20027;-75
2023/02/02 07:27:32;;;;;;;7.00;3.60;;;154.10;2252.80;;;;;;5047260;28;20036;-76
2023/02/02 07:29:57;;;;;;;;;;;154.10;2252.80;;;;;;5043966;28;20017;-75
2023/02/02 07:32:23;;;;;;;6.25;2.85;;;154.10;2252.80;;;;;;5072113;28;19958;-75
2023/02/02 07:34:49;;;;;;;;;;;154.10;2252.80;;;;;;5061549;28;20032;-76
2023/02/02 07:37:14;;;;;;;31.05;23.67;;;154.10;2252.80;;;;;;5062353;28;20400;-76
2023/02/02 07:39:42;;;;;;;;;;;154.10;2252.80;;;;;;5050310;28;20098;-76
2023/02/02 07:42:11;;;;;;;;;;;154.10;2252.80;;;;;;5052042;28;19905;-77
2023/02/02 07:44:37;;;;;;;9.48;5.10;;;154.10;2252.80;;;;;;5060533;28;19991;-77
2023/02/02 07:47:03;;;;;;;;;;;154.00;2252.80;;;;;;5059984;28;20068;-77
2023/02/02 07:49:28;;;;;;;9.27;4.45;;;154.00;2252.80;;;;;;5048720;28;20425;-77
2023/02/02 07:51:54;;;;;;;;;;;153.90;2252.80;;;;;;5047153;28;20117;-77
2023/02/02 07:54:20;;;;;;;5.93;3.50;;;153.90;2252.80;;;;;;5060115;28;19917;-78
2023/02/02 07:56:45;;;;;;;;;;;153.90;2252.80;;;;;;5068994;28;20031;-77
2023/02/02 07:59:11;;;;;;;8.70;3.88;;;153.80;2252.80;;;;;;5050516;28;20436;-78
2023/02/02 08:01:36;;;;;;;;;;;153.80;2252.80;;;;;;5048458;28;20020;-77
2023/02/02 08:04:02;;;;;;;10.13;4.43;;;153.80;2252.80;;;;;;5061258;28;19904;-77
2023/02/02 08:06:33;;;;;;;;;;;153.70;2252.80;;;;;;5049505;28;20021;-77
2023/02/02 08:08:59;;;;;;;9.52;4.32;;;153.80;2252.80;;;;;;5048837;28;19912;-77
2023/02/02 08:11:26;;;;;;;9.70;4.70;;;153.80;2252.80;;;;;;5062722;28;20033;-76
2023/02/02 08:13:55;;;;;;;7.28;4.00;;;153.80;2252.80;;;;;;5055702;28;20024;-78
2023/02/02 08:16:22;;;;;;;8.63;4.50;;;153.90;2252.80;;;;;;5067730;28;20028;-77
2023/02/02 08:18:48;;;;;;;11.18;5.22;;;154.00;2252.80;;;;;;5059051;28;20104;-77
2023/02/02 08:21:14;;;;;;;;;;;154.00;2252.80;;;;;;5066501;28;20488;-77
2023/02/02 08:23:40;;;;;;;11.52;6.15;;;154.00;2252.80;;;;;;5065548;28;19913;-77
2023/02/02 08:26:08;;;;;;;13.88;6.13;;;154.10;2252.80;;;;;;5061492;28;20398;-77
2023/02/02 08:28:35;;;;;;;11.48;6.05;;;154.10;2252.80;;;;;;5058028;28;20068;-77
2023/02/02 08:31:14;;;;;;;12.10;7.00;;;154.10;2252.80;;;;;;5042764;28;20022;-78
2023/02/02 08:33:40;;;;;;;12.32;6.43;;;154.20;2252.80;;;;;;5066056;28;20100;-77
2023/02/02 08:36:12;;;;;;;;;;;154.20;2252.80;;;;;;5048036;28;20048;-77
2023/02/02 08:38:39;;;;;;;15.55;6.88;;;154.20;2252.80;;;;;;5049323;28;19959;-78
2023/02/02 08:41:11;;;;;;;16.80;8.20;;;154.30;2252.80;;;;;;5064607;28;20526;-77
2023/02/02 08:43:37;;;;;;;17.33;8.65;;;154.40;2252.80;;;;;;5052668;28;20024;-78
2023/02/02 08:46:05;;;;;;;13.07;7.18;;;154.40;2252.80;;;;;;5063958;28;20056;-78
2023/02/02 08:48:31;;;;;;;15.90;7.10;;;154.50;2252.80;;;;;;5061983;28;20044;-77
2023/02/02 08:50:57;;;;;;;;;;;179.20;2252.80;;;;;;5065435;28;20092;-77
2023/02/02 08:53:24;;;;;;;19.35;8.40;;;179.20;2252.80;;;;;;5040866;28;19962;-77
2023/02/02 08:55:58;;;;;;;15.48;7.63;;;179.30;2252.80;;;;;;5044599;28;20029;-78
2023/02/02 08:58:24;;;;;;;17.05;9.40;;;179.30;2252.80;;;;;;5043097;28;20032;-77
2023/02/02 09:00:50;;;;;;;;;;;179.20;2252.80;;;;;;5046624;28;20044;-78
2023/02/02 09:03:15;;;;;;;13.73;6.43;;;179.20;2252.80;;;;;;5064905;28;19905;-77
2023/02/02 09:05:41;;;;;;;;;;;179.20;2252.80;;;;;;5040463;28;20090;-77
2023/02/02 09:08:07;;;;;;;17.83;7.97;;;179.30;2252.80;;;;;;5050165;28;20377;-77
2023/02/02 09:10:36;;;;;;;;;;;179.30;2252.80;;;;;;5045543;28;20514;-79
2023/02/02 09:13:02;;;;;;;20.25;7.00;;;179.40;2252.80;;;;;;5043102;28;19912;-77
2023/02/02 09:15:28;;;;;;;23.02;10.30;;;179.40;2252.80;;;;;;5062193;28;20475;-78
2023/02/02 09:17:54;;;;;;;;;;;179.40;2252.80;;;;;;5061972;28;20021;-78
2023/02/02 09:20:20;;;;;;;13.93;6.18;;;179.40;2252.80;;;;;;5048037;28;19911;-76
2023/02/02 09:22:45;;;;;;;;;;;179.50;2252.80;;;;;;5050388;28;20025;-77
2023/02/02 09:25:11;;;;;;;9.25;4.25;;;179.40;2252.80;;;;;;5063349;28;20373;-77
2023/02/02 09:27:38;;;;;;;;;;;179.40;2252.80;;;;;;5057483;28;20463;-77
2023/02/02 09:30:04;;;;;;;10.60;4.70;;;179.40;2252.80;;;;;;5045728;28;19931;-77
2023/02/02 09:32:29;;;;;;;;;;;179.40;2252.80;;;;;;5050939;28;20479;-77
2023/02/02 09:34:55;;;;;;;15.68;4.88;;;179.40;2252.80;;;;;;5064201;28;19919;-77
2023/02/02 09:37:21;;;;;;;;;;;179.40;2252.80;;;;;;5048850;28;20053;-76
2023/02/02 09:39:46;;;;;;;10.32;4.82;;;179.30;2252.80;;;;;;5041640;28;19911;-76
2023/02/02 09:42:38;;;;;;;;;;;179.40;2252.80;;;;;;5058901;28;20060;-78
2023/02/02 09:45:14;;;;;;;13.00;5.28;;;179.40;2252.80;;;;;;5055930;28;19905;-78
2023/02/02 09:47:54;;;;;;;12.07;4.55;;;179.40;2252.80;;;;;;5036022;28;20037;-76
2023/02/02 09:50:20;;;;;;;8.82;4.10;;;179.40;2252.80;;;;;;5047312;28;20433;-76
2023/02/02 09:53:04;;;;;;;;;;;179.50;2252.80;;;;;;5044898;28;20037;-78
2023/02/02 09:55:39;;;;;;;9.43;3.78;;;179.50;2252.80;;;;;;5044951;28;19968;-79
2023/02/02 09:58:23;;;;;;;10.00;4.25;;;179.60;2252.80;;;;;;5063107;28;20048;-79
2023/02/02 10:01:14;;;;;;;15.82;6.90;;;179.60;2252.80;;;;;;5042619;28;20025;-79
2023/02/02 10:03:43;;;;;;;19.85;6.80;;;179.70;2252.80;;;;;;5045941;28;20025;-78
2023/02/02 10:06:40;;;;;;;8.77;4.60;;;179.70;2252.80;;;;;;5046575;28;20033;-76
2023/02/02 10:09:16;;;;;;;5.20;2.78;;;179.70;2252.80;;;;;;5042431;28;20030;-78
2023/02/02 10:12:30;;;;;;;6.78;2.75;;;179.70;2252.80;;;;;;5050170;28;20033;-78
2023/02/02 10:15:21;;;;;;;4.38;2.30;;;179.80;2252.80;;;;;;5041417;28;20033;-76
2023/02/02 10:17:56;;;;;;;7.57;2.65;;;179.80;2252.80;;;;;;5045805;28;20021;-77
2023/02/02 10:20:44;;;;;;;5.72;2.40;;;179.80;2252.80;;;;;;5044091;28;20022;-73
2023/02/02 10:23:30;;;;;;;7.00;3.15;;;179.80;2252.80;;;;;;5038707;28;20060;-78
2023/02/02 10:25:58;;;;;;;7.55;3.00;;;179.90;2252.80;;;;;;5041361;28;20493;-76
2023/02/02 10:28:38;;;;;;;10.07;3.53;;;179.90;2252.80;;;;;;5037877;28;20037;-76
2023/02/02 10:31:21;;;;;;;7.82;3.63;;;179.90;2252.80;;;;;;5044963;28;20032;-77
2023/02/02 10:33:58;;;;;;;7.20;3.63;;;180.00;2252.80;;;;;;5037088;28;20056;-74
2023/02/02 10:36:30;;;;;;;;;;;179.90;2252.80;;;;;;5046902;28;20076;-76
2023/02/02 10:39:26;;;;;;;9.90;4.30;;;180.00;2252.80;;;;;;5041583;28;19936;-75
2023/02/02 10:42:08;;;;;;;6.97;3.25;;;180.00;2252.80;;;;;;5045321;28;20017;-75
2023/02/02 10:44:46;;;;;;;7.55;3.08;;;180.10;2252.80;;;;;;5043434;28;20021;-76
2023/02/02 10:47:22;;;;;;;7.22;3.50;;;180.10;2252.80;;;;;;5040217;28;20044;-76
2023/02/02 10:49:59;;;;;;;6.55;3.22;;;180.10;2252.80;;;;;;5036345;28;20021;-76
2023/02/02 10:52:30;;;;;;;7.35;3.00;;;180.10;2252.80;;;;;;5047161;28;20052;-76
2023/02/02 10:55:13;;;;;;;6.20;2.55;;;180.10;2252.80;;;;;;5043822;28;20052;-77
2023/02/02 10:58:02;;;;;;;7.82;3.45;;;180.10;2252.80;;;;;;5031125;28;20047;-76
2023/02/02 11:00:44;;;;;;;9.43;3.83;;;180.10;2252.80;;;;;;5036667;28;20104;-77
2023/02/02 11:03:12;;;;;;;8.63;3.42;;;180.10;2252.80;;;;;;5034292;28;20052;-77
2023/02/02 11:08:31;;;;;;;7.25;3.58;;;205.20;2252.80;;;;;;5040138;28;20185;-76
2023/02/02 11:11:08;;;;;;;7.63;3.55;;;230.70;2252.80;;;;;;5033432;28;20033;-77
2023/02/02 11:13:41;;;;;;;5.75;3.05;;;231.30;2252.80;;;;;;5034499;28;20390;-76
2023/02/02 11:16:16;;;;;;;12.43;3.47;;;256.20;2252.80;;;;;;5042064;28;20114;-76
2023/02/02 11:18:43;;;;;;;14.00;8.20;;;256.80;2252.80;;;;;;5038724;28;20025;-76
2023/02/02 11:21:20;;;;;;;6.97;3.30;;;281.60;2278.40;;;;;;5038243;28;20124;-77
2023/02/02 11:24:02;;;;;;;6.55;3.15;;;281.90;2278.40;;;;;;5043025;28;20028;-76
2023/02/02 11:26:54;;;;;;;7.28;2.97;;;282.00;2227.20;;;;;;5038215;28;20489;-75
2023/02/02 11:29:47;;;;;;;9.57;3.75;;;282.20;2176.00;;;;;;5037350;28;20041;-75
2023/02/02 11:32:19;;;;;;;10.93;4.55;;;282.50;2073.60;;;;;;5037446;28;20032;-75
2023/02/02 11:34:46;;;;;;;8.48;3.25;;;282.50;2022.40;;;;;;5036929;28;20017;-75
2023/02/02 11:37:12;;;;;;;8.68;3.38;;;307.20;1996.80;;;;;;5042055;28;20060;-76
2023/02/02 11:39:42;;;;;;;8.13;2.33;;;307.20;1971.20;;;;;;5034019;28;20108;-75
2023/02/02 11:42:22;;;;;;;6.22;3.30;;;282.20;1868.80;;;;;;5049364;28;20025;-75
2023/02/02 11:44:58;;;;;;;7.35;2.97;;;282.20;1868.80;;;;;;5039355;28;20036;-74
2023/02/02 11:47:28;;;;;;;8.43;2.80;;;282.30;1894.40;;;;;;5041409;28;20546;-76
2023/02/02 11:49:56;;;;;;;11.35;3.42;;;282.50;1894.40;;;;;;5047252;28;20506;-74
2023/02/02 11:52:24;;;;;;;5.50;2.58;;;307.20;1894.40;;;;;;5038348;28;20041;-75
2023/02/02 11:54:58;;;;;;;9.63;3.05;;;282.50;1843.20;;;;;;5040408;28;20029;-75
2023/02/02 11:57:27;;;;;;;4.00;1.98;;;282.40;1843.20;;;;;;5041325;28;20097;-75
2023/02/02 12:00:11;;;;;;;5.82;2.33;;;307.20;1843.20;;;;;;5038889;28;20032;-76
2023/02/02 12:02:44;;;;;;;11.40;3.60;;;282.50;1817.60;;;;;;5045678;28;20028;-76
2023/02/02 12:05:09;;;;;;;8.75;2.78;;;307.40;1868.80;;;;;;5044152;28;20026;-75
2023/02/02 12:07:36;;;;;;;7.28;3.40;;;282.40;1843.20;;;;;;5049214;28;20040;-75
2023/02/02 12:10:51;;;;;;;6.32;2.95;;;282.20;1894.40;;;;;;5043399;28;20022;-75
2023/02/02 12:13:50;;;;;;;5.20;2.17;;;307.20;1894.40;;;;;;5041978;28;20041;-74
2023/02/02 12:16:26;;;;;;;4.97;2.42;;;307.20;1843.20;;;;;;4973895;28;20147;-75
2023/02/02 12:19:02;;;;;;;4.13;1.88;;;307.30;1868.80;;;;;;4973875;28;20027;-75
2023/02/02 12:21:58;;;;;;;8.02;1.90;;;307.30;1843.20;;;;;;4973833;28;20039;-74
2023/02/02 12:24:54;;;;;;;4.47;1.83;;;282.40;1817.60;;;;;;4973919;28;20027;-75
2023/02/02 12:27:40;;;;;;;6.55;2.28;;;282.30;1843.20;;;;;;4943997;29;20043;-75
2023/02/02 12:30:17;;;;;;;5.15;2.25;;;282.40;1920.00;;;;;;4964404;28;20054;-75
2023/02/02 12:33:01;;;;;;;6.72;2.03;;;307.30;1894.40;;;;;;4973815;28;20027;-75
2023/02/02 12:35:55;;;;;;;4.75;2.20;;;307.50;1868.80;;;;;;4973130;28;20023;-74
2023/02/02 12:38:40;;;;;;;8.52;3.25;;;282.50;1843.20;;;;;;4970906;28;20019;-75
2023/02/02 12:41:17;;;;;;;6.57;1.80;;;307.20;1868.80;;;;;;4968279;28;20039;-74
2023/02/02 12:43:46;;;;;;;5.18;1.88;;;282.40;1868.80;;;;;;4973085;28;20027;-75
2023/02/02 12:46:42;;;;;;;4.72;1.98;;;282.00;1843.20;;;;;;4973070;28;20042;-75
2023/02/02 12:49:16;;;;;;;5.55;2.10;;;281.70;1894.40;;;;;;4973395;28;20519;-75
2023/02/02 12:52:06;;;;;;;8.45;2.85;;;256.90;1868.80;;;;;;4972992;28;20197;-75
2023/02/02 12:55:00;;;;;;;5.07;2.47;;;256.80;1894.40;;;;;;5039485;28;20045;-75
2023/02/02 12:58:08;;;;;;;8.27;2.60;;;256.70;1996.80;;;;;;5038695;28;20025;-75
2023/02/02 13:00:45;;;;;;;4.47;1.95;;;256.50;1996.80;;;;;;5035080;28;20022;-76
2023/02/02 13:03:14;;;;;;;6.18;2.97;;;256.30;1996.80;;;;;;5040171;28;20057;-74